sensor_id;sensor_type;location;lat;lon;timestamp;P1;durP1;ratioP1;P2;durP2;ratioP2
68212;SDS011;55035;47.792;8.724;2023-04-20T00:01:23;12.02;;;5.57;;
68212;SDS011;55035;47.792;8.724;2023-04-20T00:03:50;13.10;;;5.63;;
68212;SDS011;55035;47.792;8.724;2023-04-20T00:06:17;12.90;;;5.40;;
68212;SDS011;55035;47.792;8.724;2023-04-20T00:08:46;14.13;;;5.80;;
68212;SDS011;55035;47.792;8.724;2023-04-20T00:11:12;13.38;;;5.97;;
68212;SDS011;55035;47.792;8.724;2023-04-20T00:13:40;11.48;;;5.65;;
68212;SDS011;55035;47.792;8.724;2023-04-20T00:16:07;13.38;;;6.05;;
68212;SDS011;55035;47.792;8.724;2023-04-20T00:18:34;15.27;;;5.93;;
68212;SDS011;55035;47.792;8.724;2023-04-20T00:21:01;13.73;;;6.28;;
68212;SDS011;55035;47.792;8.724;2023-04-20T00:23:28;12.65;;;5.75;;
68212;SDS011;55035;47.792;8.724;2023-04-20T00:25:55;12.90;;;5.90;;
68212;SDS011;55035;47.792;8.724;2023-04-20T00:28:21;12.63;;;6.07;;
68212;SDS011;55035;47.792;8.724;2023-04-20T00:30:49;13.80;;;5.93;;
68212;SDS011;55035;47.792;8.724;2023-04-20T00:33:16;14.43;;;6.32;;
68212;SDS011;55035;47.792;8.724;2023-04-20T00:35:43;13.77;;;6.28;;
68212;SDS011;55035;47.792;8.724;2023-04-20T00:38:10;17.15;;;6.18;;
68212;SDS011;55035;47.792;8.724;2023-04-20T00:40:37;13.35;;;5.63;;
68212;SDS011;55035;47.792;8.724;2023-04-20T00:43:09;14.63;;;6.37;;
68212;SDS011;55035;47.792;8.724;2023-04-20T00:45:37;14.02;;;5.88;;
68212;SDS011;55035;47.792;8.724;2023-04-20T00:48:06;14.93;;;6.13;;
68212;SDS011;55035;47.792;8.724;2023-04-20T00:50:33;13.15;;;6.22;;
68212;SDS011;55035;47.792;8.724;2023-04-20T00:53:00;13.02;;;5.80;;
68212;SDS011;55035;47.792;8.724;2023-04-20T00:55:27;15.07;;;6.67;;
68212;SDS011;55035;47.792;8.724;2023-04-20T00:57:55;12.90;;;6.22;;
68212;SDS011;55035;47.792;8.724;2023-04-20T01:00:23;15.80;;;6.22;;
68212;SDS011;55035;47.792;8.724;2023-04-20T01:02:50;14.32;;;6.05;;
68212;SDS011;55035;47.792;8.724;2023-04-20T01:05:19;15.25;;;6.10;;
68212;SDS011;55035;47.792;8.724;2023-04-20T01:07:45;13.03;;;6.20;;
68212;SDS011;55035;47.792;8.724;2023-04-20T01:10:12;13.88;;;6.57;;
68212;SDS011;55035;47.792;8.724;2023-04-20T01:12:39;14.45;;;6.40;;
68212;SDS011;55035;47.792;8.724;2023-04-20T01:15:06;13.25;;;6.20;;
68212;SDS011;55035;47.792;8.724;2023-04-20T01:17:34;15.43;;;6.28;;
68212;SDS011;55035;47.792;8.724;2023-04-20T01:20:02;14.43;;;6.07;;
68212;SDS011;55035;47.792;8.724;2023-04-20T01:22:30;13.13;;;6.13;;
68212;SDS011;55035;47.792;8.724;2023-04-20T01:24:57;14.45;;;5.90;;
68212;SDS011;55035;47.792;8.724;2023-04-20T01:27:25;13.60;;;6.38;;
68212;SDS011;55035;47.792;8.724;2023-04-20T01:29:52;15.15;;;6.47;;
68212;SDS011;55035;47.792;8.724;2023-04-20T01:32:19;14.10;;;6.00;;
68212;SDS011;55035;47.792;8.724;2023-04-20T01:34:46;14.55;;;6.20;;
68212;SDS011;55035;47.792;8.724;2023-04-20T01:37:14;15.25;;;6.43;;
68212;SDS011;55035;47.792;8.724;2023-04-20T01:39:42;15.38;;;7.13;;
68212;SDS011;55035;47.792;8.724;2023-04-20T01:42:10;13.73;;;6.20;;
68212;SDS011;55035;47.792;8.724;2023-04-20T01:44:37;12.97;;;5.80;;
68212;SDS011;55035;47.792;8.724;2023-04-20T01:47:04;12.85;;;6.10;;
68212;SDS011;55035;47.792;8.724;2023-04-20T01:49:32;15.90;;;7.22;;
68212;SDS011;55035;47.792;8.724;2023-04-20T01:51:59;13.55;;;6.03;;
68212;SDS011;55035;47.792;8.724;2023-04-20T01:54:26;15.05;;;6.43;;
68212;SDS011;55035;47.792;8.724;2023-04-20T01:56:54;13.90;;;6.17;;
68212;SDS011;55035;47.792;8.724;2023-04-20T01:59:22;12.65;;;5.90;;
68212;SDS011;55035;47.792;8.724;2023-04-20T02:01:49;18.50;;;7.57;;
68212;SDS011;55035;47.792;8.724;2023-04-20T02:04:16;15.45;;;6.53;;
68212;SDS011;55035;47.792;8.724;2023-04-20T02:06:43;13.85;;;6.13;;
68212;SDS011;55035;47.792;8.724;2023-04-20T02:09:10;15.77;;;6.80;;
68212;SDS011;55035;47.792;8.724;2023-04-20T02:11:37;16.42;;;7.05;;
68212;SDS011;55035;47.792;8.724;2023-04-20T02:14:07;15.98;;;6.90;;
68212;SDS011;55035;47.792;8.724;2023-04-20T02:16:34;15.13;;;6.30;;
68212;SDS011;55035;47.792;8.724;2023-04-20T02:19:04;15.35;;;7.10;;
68212;SDS011;55035;47.792;8.724;2023-04-20T02:21:31;14.10;;;6.47;;
68212;SDS011;55035;47.792;8.724;2023-04-20T02:23:58;14.82;;;6.97;;
68212;SDS011;55035;47.792;8.724;2023-04-20T02:26:26;16.73;;;6.50;;
68212;SDS011;55035;47.792;8.724;2023-04-20T02:28:52;14.20;;;6.03;;
68212;SDS011;55035;47.792;8.724;2023-04-20T02:31:21;14.85;;;6.13;;
68212;SDS011;55035;47.792;8.724;2023-04-20T02:33:47;14.87;;;6.20;;
68212;SDS011;55035;47.792;8.724;2023-04-20T02:36:14;13.10;;;5.72;;
68212;SDS011;55035;47.792;8.724;2023-04-20T02:38:41;14.52;;;6.75;;
68212;SDS011;55035;47.792;8.724;2023-04-20T02:41:08;14.00;;;6.47;;
68212;SDS011;55035;47.792;8.724;2023-04-20T02:43:35;19.10;;;8.38;;
68212;SDS011;55035;47.792;8.724;2023-04-20T02:46:03;14.83;;;6.40;;
68212;SDS011;55035;47.792;8.724;2023-04-20T02:48:31;14.35;;;6.18;;
68212;SDS011;55035;47.792;8.724;2023-04-20T02:50:59;16.10;;;6.45;;
68212;SDS011;55035;47.792;8.724;2023-04-20T02:53:31;14.02;;;6.10;;
68212;SDS011;55035;47.792;8.724;2023-04-20T02:56:10;13.52;;;6.47;;
68212;SDS011;55035;47.792;8.724;2023-04-20T02:58:43;14.37;;;6.07;;
68212;SDS011;55035;47.792;8.724;2023-04-20T03:01:23;13.73;;;6.40;;
68212;SDS011;55035;47.792;8.724;2023-04-20T03:03:59;12.88;;;6.25;;
68212;SDS011;55035;47.792;8.724;2023-04-20T03:06:26;16.83;;;6.20;;
68212;SDS011;55035;47.792;8.724;2023-04-20T03:08:55;15.40;;;6.82;;
68212;SDS011;55035;47.792;8.724;2023-04-20T03:11:45;14.43;;;6.80;;
68212;SDS011;55035;47.792;8.724;2023-04-20T03:14:20;12.93;;;6.05;;
68212;SDS011;55035;47.792;8.724;2023-04-20T03:16:47;14.95;;;7.00;;
68212;SDS011;55035;47.792;8.724;2023-04-20T03:19:16;15.07;;;6.65;;
68212;SDS011;55035;47.792;8.724;2023-04-20T03:21:43;14.95;;;6.45;;
68212;SDS011;55035;47.792;8.724;2023-04-20T03:24:10;14.73;;;6.67;;
68212;SDS011;55035;47.792;8.724;2023-04-20T03:26:38;14.88;;;6.80;;
68212;SDS011;55035;47.792;8.724;2023-04-20T03:29:12;21.88;;;10.13;;
68212;SDS011;55035;47.792;8.724;2023-04-20T03:31:39;17.77;;;6.70;;
68212;SDS011;55035;47.792;8.724;2023-04-20T03:34:07;14.90;;;7.00;;
68212;SDS011;55035;47.792;8.724;2023-04-20T03:36:35;17.10;;;7.40;;
68212;SDS011;55035;47.792;8.724;2023-04-20T03:39:03;14.77;;;6.55;;
68212;SDS011;55035;47.792;8.724;2023-04-20T03:41:30;13.55;;;6.45;;
68212;SDS011;55035;47.792;8.724;2023-04-20T03:43:57;16.48;;;6.68;;
68212;SDS011;55035;47.792;8.724;2023-04-20T03:46:24;13.75;;;6.43;;
68212;SDS011;55035;47.792;8.724;2023-04-20T03:48:50;15.97;;;6.93;;
68212;SDS011;55035;47.792;8.724;2023-04-20T03:51:18;15.45;;;6.97;;
68212;SDS011;55035;47.792;8.724;2023-04-20T03:53:46;15.05;;;6.93;;
68212;SDS011;55035;47.792;8.724;2023-04-20T03:56:13;15.85;;;6.82;;
68212;SDS011;55035;47.792;8.724;2023-04-20T03:58:41;14.45;;;6.75;;
68212;SDS011;55035;47.792;8.724;2023-04-20T04:01:14;16.87;;;6.70;;
68212;SDS011;55035;47.792;8.724;2023-04-20T04:03:45;15.63;;;7.38;;
68212;SDS011;55035;47.792;8.724;2023-04-20T04:06:12;15.68;;;7.35;;
68212;SDS011;55035;47.792;8.724;2023-04-20T04:08:39;16.17;;;7.22;;
68212;SDS011;55035;47.792;8.724;2023-04-20T04:11:08;14.82;;;6.78;;
68212;SDS011;55035;47.792;8.724;2023-04-20T04:13:35;15.67;;;6.80;;
68212;SDS011;55035;47.792;8.724;2023-04-20T04:16:04;16.90;;;6.80;;
68212;SDS011;55035;47.792;8.724;2023-04-20T04:18:32;15.10;;;6.70;;
68212;SDS011;55035;47.792;8.724;2023-04-20T04:21:04;15.20;;;6.53;;
68212;SDS011;55035;47.792;8.724;2023-04-20T04:23:34;15.77;;;6.47;;
68212;SDS011;55035;47.792;8.724;2023-04-20T04:26:23;16.13;;;7.40;;
68212;SDS011;55035;47.792;8.724;2023-04-20T04:28:52;13.23;;;6.20;;
68212;SDS011;55035;47.792;8.724;2023-04-20T04:31:20;14.82;;;6.85;;
68212;SDS011;55035;47.792;8.724;2023-04-20T04:33:48;14.90;;;7.15;;
68212;SDS011;55035;47.792;8.724;2023-04-20T04:36:23;15.30;;;7.07;;
68212;SDS011;55035;47.792;8.724;2023-04-20T04:38:52;16.27;;;6.93;;
68212;SDS011;55035;47.792;8.724;2023-04-20T04:41:20;13.27;;;6.63;;
68212;SDS011;55035;47.792;8.724;2023-04-20T04:43:50;18.00;;;8.25;;
68212;SDS011;55035;47.792;8.724;2023-04-20T04:46:23;14.55;;;6.95;;
68212;SDS011;55035;47.792;8.724;2023-04-20T04:48:50;14.88;;;6.95;;
68212;SDS011;55035;47.792;8.724;2023-04-20T04:51:17;15.07;;;7.53;;
68212;SDS011;55035;47.792;8.724;2023-04-20T04:53:44;16.55;;;7.50;;
68212;SDS011;55035;47.792;8.724;2023-04-20T04:56:13;16.70;;;7.07;;
68212;SDS011;55035;47.792;8.724;2023-04-20T04:58:43;16.38;;;7.25;;
68212;SDS011;55035;47.792;8.724;2023-04-20T05:01:12;15.30;;;7.32;;
68212;SDS011;55035;47.792;8.724;2023-04-20T05:03:39;16.73;;;7.60;;
68212;SDS011;55035;47.792;8.724;2023-04-20T05:06:06;17.92;;;7.25;;
68212;SDS011;55035;47.792;8.724;2023-04-20T05:08:33;15.73;;;7.45;;
68212;SDS011;55035;47.792;8.724;2023-04-20T05:11:00;16.45;;;7.20;;
68212;SDS011;55035;47.792;8.724;2023-04-20T05:13:27;15.65;;;7.47;;
68212;SDS011;55035;47.792;8.724;2023-04-20T05:15:57;16.70;;;7.37;;
68212;SDS011;55035;47.792;8.724;2023-04-20T05:18:25;17.65;;;7.63;;
68212;SDS011;55035;47.792;8.724;2023-04-20T05:20:52;15.82;;;7.70;;
68212;SDS011;55035;47.792;8.724;2023-04-20T05:23:19;15.73;;;7.63;;
68212;SDS011;55035;47.792;8.724;2023-04-20T05:25:45;16.95;;;7.43;;
68212;SDS011;55035;47.792;8.724;2023-04-20T05:28:12;16.63;;;7.60;;
68212;SDS011;55035;47.792;8.724;2023-04-20T05:30:39;15.13;;;7.80;;
68212;SDS011;55035;47.792;8.724;2023-04-20T05:33:06;16.30;;;7.63;;
68212;SDS011;55035;47.792;8.724;2023-04-20T05:35:34;15.68;;;7.43;;
68212;SDS011;55035;47.792;8.724;2023-04-20T05:38:01;18.60;;;8.93;;
68212;SDS011;55035;47.792;8.724;2023-04-20T05:40:30;19.10;;;8.70;;
68212;SDS011;55035;47.792;8.724;2023-04-20T05:42:58;15.55;;;7.68;;
68212;SDS011;55035;47.792;8.724;2023-04-20T05:45:25;16.85;;;7.80;;
68212;SDS011;55035;47.792;8.724;2023-04-20T05:47:52;16.08;;;7.93;;
68212;SDS011;55035;47.792;8.724;2023-04-20T05:50:20;17.70;;;8.10;;
68212;SDS011;55035;47.792;8.724;2023-04-20T05:52:50;18.33;;;8.33;;
68212;SDS011;55035;47.792;8.724;2023-04-20T05:55:18;18.35;;;8.52;;
68212;SDS011;55035;47.792;8.724;2023-04-20T05:57:45;17.65;;;8.10;;
68212;SDS011;55035;47.792;8.724;2023-04-20T06:00:12;17.98;;;9.00;;
68212;SDS011;55035;47.792;8.724;2023-04-20T06:02:40;21.08;;;9.13;;
68212;SDS011;55035;47.792;8.724;2023-04-20T06:05:07;19.30;;;8.80;;
68212;SDS011;55035;47.792;8.724;2023-04-20T06:07:35;18.58;;;8.85;;
68212;SDS011;55035;47.792;8.724;2023-04-20T06:10:03;21.45;;;9.38;;
68212;SDS011;55035;47.792;8.724;2023-04-20T06:12:31;18.38;;;8.85;;
68212;SDS011;55035;47.792;8.724;2023-04-20T06:14:58;20.45;;;8.88;;
68212;SDS011;55035;47.792;8.724;2023-04-20T06:17:27;20.13;;;8.67;;
68212;SDS011;55035;47.792;8.724;2023-04-20T06:19:55;21.42;;;9.27;;
68212;SDS011;55035;47.792;8.724;2023-04-20T06:22:22;19.27;;;8.75;;
68212;SDS011;55035;47.792;8.724;2023-04-20T06:24:51;19.67;;;8.57;;
68212;SDS011;55035;47.792;8.724;2023-04-20T06:27:19;19.80;;;8.90;;
68212;SDS011;55035;47.792;8.724;2023-04-20T06:29:46;17.73;;;8.07;;
68212;SDS011;55035;47.792;8.724;2023-04-20T06:32:13;18.02;;;7.72;;
68212;SDS011;55035;47.792;8.724;2023-04-20T06:34:40;17.90;;;7.68;;
68212;SDS011;55035;47.792;8.724;2023-04-20T06:37:08;19.73;;;8.68;;
68212;SDS011;55035;47.792;8.724;2023-04-20T06:39:35;20.13;;;8.65;;
68212;SDS011;55035;47.792;8.724;2023-04-20T06:42:02;17.73;;;8.13;;
68212;SDS011;55035;47.792;8.724;2023-04-20T06:44:30;19.55;;;8.35;;
68212;SDS011;55035;47.792;8.724;2023-04-20T06:46:58;19.98;;;8.50;;
68212;SDS011;55035;47.792;8.724;2023-04-20T06:49:24;22.02;;;9.43;;
68212;SDS011;55035;47.792;8.724;2023-04-20T06:51:52;18.95;;;8.18;;
68212;SDS011;55035;47.792;8.724;2023-04-20T06:54:19;16.53;;;7.53;;
68212;SDS011;55035;47.792;8.724;2023-04-20T06:56:47;15.00;;;6.53;;
68212;SDS011;55035;47.792;8.724;2023-04-20T06:59:14;17.55;;;7.15;;
68212;SDS011;55035;47.792;8.724;2023-04-20T07:01:45;15.82;;;6.82;;
68212;SDS011;55035;47.792;8.724;2023-04-20T07:04:12;15.02;;;7.18;;
68212;SDS011;55035;47.792;8.724;2023-04-20T07:06:39;13.40;;;5.63;;
68212;SDS011;55035;47.792;8.724;2023-04-20T07:09:06;14.98;;;6.80;;
68212;SDS011;55035;47.792;8.724;2023-04-20T07:11:33;15.00;;;6.88;;
68212;SDS011;55035;47.792;8.724;2023-04-20T07:14:00;14.27;;;6.20;;
68212;SDS011;55035;47.792;8.724;2023-04-20T07:16:30;14.50;;;6.13;;
68212;SDS011;55035;47.792;8.724;2023-04-20T07:18:58;12.03;;;4.97;;
68212;SDS011;55035;47.792;8.724;2023-04-20T07:21:25;15.80;;;7.03;;
68212;SDS011;55035;47.792;8.724;2023-04-20T07:23:52;16.52;;;7.05;;
68212;SDS011;55035;47.792;8.724;2023-04-20T07:26:20;13.27;;;6.07;;
68212;SDS011;55035;47.792;8.724;2023-04-20T07:28:47;11.98;;;5.05;;
68212;SDS011;55035;47.792;8.724;2023-04-20T07:31:15;14.63;;;6.60;;
68212;SDS011;55035;47.792;8.724;2023-04-20T07:33:41;12.23;;;5.85;;
68212;SDS011;55035;47.792;8.724;2023-04-20T07:36:10;12.93;;;5.78;;
68212;SDS011;55035;47.792;8.724;2023-04-20T07:38:39;11.70;;;4.90;;
68212;SDS011;55035;47.792;8.724;2023-04-20T07:41:07;11.98;;;5.13;;
68212;SDS011;55035;47.792;8.724;2023-04-20T07:43:34;11.30;;;4.93;;
68212;SDS011;55035;47.792;8.724;2023-04-20T07:46:00;8.85;;;3.88;;
68212;SDS011;55035;47.792;8.724;2023-04-20T07:48:29;9.48;;;3.50;;
68212;SDS011;55035;47.792;8.724;2023-04-20T07:50:56;8.82;;;3.67;;
68212;SDS011;55035;47.792;8.724;2023-04-20T07:53:25;9.05;;;3.15;;
68212;SDS011;55035;47.792;8.724;2023-04-20T07:55:52;10.67;;;2.87;;
68212;SDS011;55035;47.792;8.724;2023-04-20T07:58:19;7.00;;;2.50;;
68212;SDS011;55035;47.792;8.724;2023-04-20T08:00:46;7.28;;;2.60;;
68212;SDS011;55035;47.792;8.724;2023-04-20T08:03:13;7.00;;;2.58;;
68212;SDS011;55035;47.792;8.724;2023-04-20T08:05:42;9.05;;;2.80;;
68212;SDS011;55035;47.792;8.724;2023-04-20T08:08:09;7.50;;;2.73;;
68212;SDS011;55035;47.792;8.724;2023-04-20T08:10:39;9.05;;;2.88;;
68212;SDS011;55035;47.792;8.724;2023-04-20T08:13:06;6.75;;;2.55;;
68212;SDS011;55035;47.792;8.724;2023-04-20T08:15:33;8.30;;;2.75;;
68212;SDS011;55035;47.792;8.724;2023-04-20T08:18:00;6.97;;;2.33;;
68212;SDS011;55035;47.792;8.724;2023-04-20T08:20:29;7.80;;;2.53;;
68212;SDS011;55035;47.792;8.724;2023-04-20T08:22:56;6.90;;;2.70;;
68212;SDS011;55035;47.792;8.724;2023-04-20T08:25:23;5.60;;;1.90;;
68212;SDS011;55035;47.792;8.724;2023-04-20T08:27:51;7.03;;;2.60;;
68212;SDS011;55035;47.792;8.724;2023-04-20T08:30:19;6.65;;;2.40;;
68212;SDS011;55035;47.792;8.724;2023-04-20T08:32:46;6.93;;;2.70;;
68212;SDS011;55035;47.792;8.724;2023-04-20T08:35:12;6.90;;;2.50;;
68212;SDS011;55035;47.792;8.724;2023-04-20T08:37:39;5.90;;;2.08;;
68212;SDS011;55035;47.792;8.724;2023-04-20T08:40:08;7.03;;;2.58;;
68212;SDS011;55035;47.792;8.724;2023-04-20T08:42:36;7.28;;;2.30;;
68212;SDS011;55035;47.792;8.724;2023-04-20T08:45:06;7.07;;;2.23;;
68212;SDS011;55035;47.792;8.724;2023-04-20T08:47:34;6.18;;;2.17;;
68212;SDS011;55035;47.792;8.724;2023-04-20T08:50:01;6.10;;;2.08;;
68212;SDS011;55035;47.792;8.724;2023-04-20T08:52:29;5.30;;;1.60;;
68212;SDS011;55035;47.792;8.724;2023-04-20T08:54:56;5.78;;;2.05;;
68212;SDS011;55035;47.792;8.724;2023-04-20T08:57:24;5.57;;;1.60;;
68212;SDS011;55035;47.792;8.724;2023-04-20T08:59:51;6.53;;;2.03;;
68212;SDS011;55035;47.792;8.724;2023-04-20T09:02:20;6.63;;;1.92;;
68212;SDS011;55035;47.792;8.724;2023-04-20T09:04:46;5.70;;;1.80;;
68212;SDS011;55035;47.792;8.724;2023-04-20T09:07:17;5.50;;;1.75;;
68212;SDS011;55035;47.792;8.724;2023-04-20T09:09:54;5.30;;;1.50;;
68212;SDS011;55035;47.792;8.724;2023-04-20T09:12:22;5.50;;;1.50;;
68212;SDS011;55035;47.792;8.724;2023-04-20T09:14:49;5.38;;;1.80;;
68212;SDS011;55035;47.792;8.724;2023-04-20T09:17:18;5.80;;;1.90;;
68212;SDS011;55035;47.792;8.724;2023-04-20T09:19:59;5.93;;;1.77;;
68212;SDS011;55035;47.792;8.724;2023-04-20T09:22:29;5.90;;;2.07;;
68212;SDS011;55035;47.792;8.724;2023-04-20T09:24:56;5.70;;;2.00;;
68212;SDS011;55035;47.792;8.724;2023-04-20T09:27:22;7.28;;;2.63;;
68212;SDS011;55035;47.792;8.724;2023-04-20T09:29:56;8.63;;;2.70;;
68212;SDS011;55035;47.792;8.724;2023-04-20T09:32:23;7.28;;;2.78;;
68212;SDS011;55035;47.792;8.724;2023-04-20T09:34:50;8.13;;;2.93;;
68212;SDS011;55035;47.792;8.724;2023-04-20T09:37:18;8.15;;;3.47;;
68212;SDS011;55035;47.792;8.724;2023-04-20T09:39:48;7.50;;;3.00;;
68212;SDS011;55035;47.792;8.724;2023-04-20T09:42:15;7.43;;;2.65;;
68212;SDS011;55035;47.792;8.724;2023-04-20T09:44:42;7.63;;;2.60;;
68212;SDS011;55035;47.792;8.724;2023-04-20T09:47:14;8.30;;;2.30;;
68212;SDS011;55035;47.792;8.724;2023-04-20T09:49:44;7.38;;;2.72;;
68212;SDS011;55035;47.792;8.724;2023-04-20T09:52:13;9.77;;;2.83;;
68212;SDS011;55035;47.792;8.724;2023-04-20T09:54:43;5.95;;;1.95;;
68212;SDS011;55035;47.792;8.724;2023-04-20T09:57:10;7.18;;;2.30;;
68212;SDS011;55035;47.792;8.724;2023-04-20T09:59:39;6.37;;;1.80;;
68212;SDS011;55035;47.792;8.724;2023-04-20T10:02:09;5.57;;;1.98;;
68212;SDS011;55035;47.792;8.724;2023-04-20T10:04:37;7.65;;;2.80;;
68212;SDS011;55035;47.792;8.724;2023-04-20T10:07:04;8.00;;;2.92;;
68212;SDS011;55035;47.792;8.724;2023-04-20T10:09:33;6.35;;;2.17;;
68212;SDS011;55035;47.792;8.724;2023-04-20T10:12:06;6.53;;;2.60;;
68212;SDS011;55035;47.792;8.724;2023-04-20T10:14:34;9.85;;;3.22;;
68212;SDS011;55035;47.792;8.724;2023-04-20T10:17:02;8.20;;;2.90;;
68212;SDS011;55035;47.792;8.724;2023-04-20T10:19:35;7.65;;;2.60;;
68212;SDS011;55035;47.792;8.724;2023-04-20T10:22:03;6.05;;;1.90;;
68212;SDS011;55035;47.792;8.724;2023-04-20T10:24:30;6.50;;;2.13;;
68212;SDS011;55035;47.792;8.724;2023-04-20T10:26:57;7.05;;;2.42;;
68212;SDS011;55035;47.792;8.724;2023-04-20T10:29:26;5.68;;;2.10;;
68212;SDS011;55035;47.792;8.724;2023-04-20T10:31:55;6.18;;;2.20;;
68212;SDS011;55035;47.792;8.724;2023-04-20T10:34:28;6.43;;;2.60;;
68212;SDS011;55035;47.792;8.724;2023-04-20T10:37:05;6.90;;;2.30;;
68212;SDS011;55035;47.792;8.724;2023-04-20T10:39:32;7.78;;;2.40;;
68212;SDS011;55035;47.792;8.724;2023-04-20T10:41:59;6.43;;;2.30;;
68212;SDS011;55035;47.792;8.724;2023-04-20T10:44:28;5.95;;;2.00;;
68212;SDS011;55035;47.792;8.724;2023-04-20T10:46:56;6.25;;;2.00;;
68212;SDS011;55035;47.792;8.724;2023-04-20T10:49:24;7.00;;;2.40;;
68212;SDS011;55035;47.792;8.724;2023-04-20T10:51:52;6.25;;;2.15;;
68212;SDS011;55035;47.792;8.724;2023-04-20T10:54:18;7.47;;;2.70;;
68212;SDS011;55035;47.792;8.724;2023-04-20T10:56:46;6.53;;;2.10;;
68212;SDS011;55035;47.792;8.724;2023-04-20T10:59:13;7.57;;;2.88;;
68212;SDS011;55035;47.792;8.724;2023-04-20T11:01:44;10.20;;;3.00;;
68212;SDS011;55035;47.792;8.724;2023-04-20T11:04:11;7.28;;;2.60;;
68212;SDS011;55035;47.792;8.724;2023-04-20T11:06:43;6.40;;;2.30;;
68212;SDS011;55035;47.792;8.724;2023-04-20T11:09:18;6.47;;;2.40;;
68212;SDS011;55035;47.792;8.724;2023-04-20T11:11:45;6.60;;;2.60;;
68212;SDS011;55035;47.792;8.724;2023-04-20T11:14:12;7.10;;;2.80;;
68212;SDS011;55035;47.792;8.724;2023-04-20T11:16:38;7.15;;;2.60;;
68212;SDS011;55035;47.792;8.724;2023-04-20T11:19:07;7.82;;;2.90;;
68212;SDS011;55035;47.792;8.724;2023-04-20T11:21:34;7.75;;;3.22;;
68212;SDS011;55035;47.792;8.724;2023-04-20T11:24:02;7.53;;;2.85;;
68212;SDS011;55035;47.792;8.724;2023-04-20T11:26:33;7.07;;;2.80;;
68212;SDS011;55035;47.792;8.724;2023-04-20T11:29:00;6.70;;;2.42;;
68212;SDS011;55035;47.792;8.724;2023-04-20T11:31:27;6.10;;;2.10;;
68212;SDS011;55035;47.792;8.724;2023-04-20T11:33:53;6.38;;;2.20;;
68212;SDS011;55035;47.792;8.724;2023-04-20T11:36:23;6.10;;;2.25;;
68212;SDS011;55035;47.792;8.724;2023-04-20T11:38:50;6.70;;;2.30;;
68212;SDS011;55035;47.792;8.724;2023-04-20T11:41:19;6.88;;;2.60;;
68212;SDS011;55035;47.792;8.724;2023-04-20T11:43:46;7.50;;;2.80;;
68212;SDS011;55035;47.792;8.724;2023-04-20T11:46:14;6.97;;;2.80;;
68212;SDS011;55035;47.792;8.724;2023-04-20T11:48:41;7.07;;;2.70;;
68212;SDS011;55035;47.792;8.724;2023-04-20T11:51:09;7.33;;;2.50;;
68212;SDS011;55035;47.792;8.724;2023-04-20T11:53:37;6.88;;;2.63;;
68212;SDS011;55035;47.792;8.724;2023-04-20T11:56:04;15.63;;;6.28;;
68212;SDS011;55035;47.792;8.724;2023-04-20T11:58:31;8.48;;;3.60;;
68212;SDS011;55035;47.792;8.724;2023-04-20T12:00:58;9.45;;;3.63;;
68212;SDS011;55035;47.792;8.724;2023-04-20T12:03:29;7.47;;;2.93;;
68212;SDS011;55035;47.792;8.724;2023-04-20T12:05:56;8.38;;;2.90;;
68212;SDS011;55035;47.792;8.724;2023-04-20T12:08:22;6.82;;;2.72;;
68212;SDS011;55035;47.792;8.724;2023-04-20T12:10:51;6.90;;;2.90;;
68212;SDS011;55035;47.792;8.724;2023-04-20T12:13:18;7.57;;;2.60;;
68212;SDS011;55035;47.792;8.724;2023-04-20T12:15:44;6.97;;;2.73;;
68212;SDS011;55035;47.792;8.724;2023-04-20T12:18:12;7.50;;;2.60;;
68212;SDS011;55035;47.792;8.724;2023-04-20T12:20:42;7.80;;;3.25;;
68212;SDS011;55035;47.792;8.724;2023-04-20T12:23:10;7.30;;;2.90;;
68212;SDS011;55035;47.792;8.724;2023-04-20T12:25:41;7.72;;;3.25;;
68212;SDS011;55035;47.792;8.724;2023-04-20T12:28:09;8.30;;;3.60;;
68212;SDS011;55035;47.792;8.724;2023-04-20T12:30:38;8.15;;;3.50;;
68212;SDS011;55035;47.792;8.724;2023-04-20T12:33:04;8.93;;;3.97;;
68212;SDS011;55035;47.792;8.724;2023-04-20T12:35:32;8.85;;;3.70;;
68212;SDS011;55035;47.792;8.724;2023-04-20T12:37:58;7.63;;;3.33;;
68212;SDS011;55035;47.792;8.724;2023-04-20T12:40:25;15.17;;;7.60;;
68212;SDS011;55035;47.792;8.724;2023-04-20T12:42:52;17.83;;;6.85;;
68212;SDS011;55035;47.792;8.724;2023-04-20T12:45:22;10.75;;;4.45;;
68212;SDS011;55035;47.792;8.724;2023-04-20T12:47:49;10.50;;;4.10;;
68212;SDS011;55035;47.792;8.724;2023-04-20T12:50:16;7.82;;;3.38;;
68212;SDS011;55035;47.792;8.724;2023-04-20T12:52:43;7.93;;;3.50;;
68212;SDS011;55035;47.792;8.724;2023-04-20T12:55:10;8.90;;;3.50;;
68212;SDS011;55035;47.792;8.724;2023-04-20T12:57:40;9.23;;;3.95;;
68212;SDS011;55035;47.792;8.724;2023-04-20T13:00:08;8.25;;;3.65;;
68212;SDS011;55035;47.792;8.724;2023-04-20T13:02:40;9.10;;;3.80;;
68212;SDS011;55035;47.792;8.724;2023-04-20T13:05:09;9.80;;;4.30;;
68212;SDS011;55035;47.792;8.724;2023-04-20T13:07:36;9.02;;;3.92;;
68212;SDS011;55035;47.792;8.724;2023-04-20T13:10:03;9.95;;;4.43;;
68212;SDS011;55035;47.792;8.724;2023-04-20T13:12:31;10.63;;;4.68;;
68212;SDS011;55035;47.792;8.724;2023-04-20T13:14:59;9.35;;;4.30;;
68212;SDS011;55035;47.792;8.724;2023-04-20T13:17:29;8.07;;;3.30;;
68212;SDS011;55035;47.792;8.724;2023-04-20T13:19:58;8.90;;;3.70;;
68212;SDS011;55035;47.792;8.724;2023-04-20T13:22:25;8.68;;;3.45;;
68212;SDS011;55035;47.792;8.724;2023-04-20T13:24:52;8.93;;;3.33;;
68212;SDS011;55035;47.792;8.724;2023-04-20T13:27:19;8.13;;;3.60;;
68212;SDS011;55035;47.792;8.724;2023-04-20T13:29:46;7.60;;;2.90;;
68212;SDS011;55035;47.792;8.724;2023-04-20T13:32:13;8.50;;;3.58;;
68212;SDS011;55035;47.792;8.724;2023-04-20T13:34:40;8.30;;;3.55;;
68212;SDS011;55035;47.792;8.724;2023-04-20T13:37:08;8.68;;;3.80;;
68212;SDS011;55035;47.792;8.724;2023-04-20T13:39:35;8.35;;;3.55;;
68212;SDS011;55035;47.792;8.724;2023-04-20T13:42:03;9.43;;;3.33;;
68212;SDS011;55035;47.792;8.724;2023-04-20T13:44:30;8.70;;;3.42;;
68212;SDS011;55035;47.792;8.724;2023-04-20T13:46:58;9.75;;;4.20;;
68212;SDS011;55035;47.792;8.724;2023-04-20T13:49:25;8.25;;;3.35;;
68212;SDS011;55035;47.792;8.724;2023-04-20T13:51:52;10.40;;;4.50;;
68212;SDS011;55035;47.792;8.724;2023-04-20T13:54:21;8.90;;;3.93;;
68212;SDS011;55035;47.792;8.724;2023-04-20T13:56:49;7.85;;;3.10;;
68212;SDS011;55035;47.792;8.724;2023-04-20T13:59:16;10.60;;;3.60;;
68212;SDS011;55035;47.792;8.724;2023-04-20T14:01:43;7.95;;;3.33;;
68212;SDS011;55035;47.792;8.724;2023-04-20T14:04:10;10.55;;;4.88;;
68212;SDS011;55035;47.792;8.724;2023-04-20T14:06:40;25.10;;;11.10;;
68212;SDS011;55035;47.792;8.724;2023-04-20T14:09:07;22.95;;;9.90;;
68212;SDS011;55035;47.792;8.724;2023-04-20T14:11:36;12.65;;;5.57;;
68212;SDS011;55035;47.792;8.724;2023-04-20T14:14:02;12.27;;;5.65;;
68212;SDS011;55035;47.792;8.724;2023-04-20T14:16:30;15.68;;;7.30;;
68212;SDS011;55035;47.792;8.724;2023-04-20T14:18:56;24.90;;;9.70;;
68212;SDS011;55035;47.792;8.724;2023-04-20T14:21:23;16.17;;;6.65;;
68212;SDS011;55035;47.792;8.724;2023-04-20T14:23:50;14.20;;;5.95;;
68212;SDS011;55035;47.792;8.724;2023-04-20T14:26:18;11.25;;;4.78;;
68212;SDS011;55035;47.792;8.724;2023-04-20T14:28:47;11.32;;;5.22;;
68212;SDS011;55035;47.792;8.724;2023-04-20T14:31:14;11.37;;;4.63;;
68212;SDS011;55035;47.792;8.724;2023-04-20T14:33:40;10.50;;;4.63;;
68212;SDS011;55035;47.792;8.724;2023-04-20T14:36:09;11.52;;;5.18;;
68212;SDS011;55035;47.792;8.724;2023-04-20T14:38:35;9.20;;;4.30;;
68212;SDS011;55035;47.792;8.724;2023-04-20T14:41:02;10.35;;;4.30;;
68212;SDS011;55035;47.792;8.724;2023-04-20T14:43:29;10.77;;;4.47;;
68212;SDS011;55035;47.792;8.724;2023-04-20T14:45:58;11.98;;;5.43;;